Strona główna
METAR-TAF:

METAR-TAF

Lotnisko :

Port lotniczy Carcassonne

Carcassonne, Francja

Szerokość geograficzna: 43-13N, Długość geograficzna: 002-19E, wysokość: 130 m

Aktualna obserwacja pogody

Raport powstał 10 minut temu, godzina 11:00 UTC
Wiatr 14 kt od zachód
Temperatura 12°C
Wilgotność 67%
Ciśnienie 1034 hPa
Widzialność 10 km lub więcej
Mało chmury na wysokości 2100 ft
Przerywane chmury na wysokości 4400 ft
Przerywane chmury na wysokości 5000 ft

METAR: LFMK 181100Z AUTO 28014KT 9999 FEW021 BKN044 BKN050 12/06 Q1034 NOSIG

czas: 12:10 (11:10 UTC)

Prognoza

Raport powstał 3 godziny i 10 minut temu, godzina 08:00 UTC
Prognoza ważna od 18 godzina 09 UTC do 19 godzina 09 UTC
Wiatr 12 kt od zachód
Widzialność 10 km lub więcej
Brak chmur poniżej 1500 m i brak chmur cumulonimbus

TAF: LFMK 180800Z 1809/1909 27012KT CAVOK

Obserwacja i prognoza pogody dla ponad 4000 lotnisk (raport METAR i TAF).

Dostępne stacje oznaczono żółtymi i czerwonymi punktami na mapie.

Najedź kursorem aby zobaczyć nazwę stacji.

Kliknij aby zobaczyć obserwacje i prognozy pogody.

Aby zmienić mapę: kliknij na zielony przycisk z czarnym krzyżykiem, aby powiększyć; na zielony przycisk z myślnikiem, aby pomniejszyć; na zielone strzałki, aby przejść do map sąsiednich.


METAR-TAF: